Time;durP1;ratioP1;P1;durP2;ratioP2;P2;SDS_P1;SDS_P2;PMS_P1;PMS_P2;Temp;Humidity;BMP_temperature;BMP_pressure;BME280_temperature;BME280_humidity;BME280_pressure;Samples;Min_cycle;Max_cycle;Signal;HPM_P1;HPM_P2
2022/01/13 00:01:24;;;;;;;49.30;29.17;;;;;;;;;;5027285;28;20497;-50
2022/01/13 00:03:50;;;;;;;24.70;16.25;;;;;;;;;;5027510;28;20029;-51
2022/01/13 00:06:16;;;;;;;33.30;19.13;;;;;;;;;;5026085;28;20569;-54
2022/01/13 00:08:41;;;;;;;35.72;21.13;;;;;;;;;;5027805;28;20026;-51
2022/01/13 00:11:07;;;;;;;28.92;16.75;;;;;;;;;;5024176;28;20089;-53
2022/01/13 00:13:46;;;;;;;21.02;13.75;;;;;;;;;;5030456;28;20037;-52
2022/01/13 00:18:41;;;;;;;19.55;12.43;;;;;;;;;;5028564;28;20065;-53
2022/01/13 00:21:16;;;;;;;24.45;13.48;;;;;;;;;;5030306;28;20061;-51
2022/01/13 00:23:47;;;;;;;19.15;13.63;;;;;;;;;;5026600;28;20479;-50
2022/01/13 00:26:24;;;;;;;29.50;15.90;;;;;;;;;;5027131;28;20033;-51
2022/01/13 00:28:52;;;;;;;20.27;14.43;;;;;;;;;;5024177;28;20050;-50
2022/01/13 00:31:24;;;;;;;17.27;11.98;;;;;;;;;;5021303;28;20459;-48
2022/01/13 00:33:54;;;;;;;23.13;13.82;;;;;;;;;;5029579;28;20646;-48
2022/01/13 00:36:22;;;;;;;17.27;12.40;;;;;;;;;;5028747;28;20026;-52
2022/01/13 00:38:48;;;;;;;20.25;13.20;;;;;;;;;;5027488;28;20025;-53
2022/01/13 00:41:14;;;;;;;21.52;13.07;;;;;;;;;;5023838;28;20017;-56
2022/01/13 00:43:40;;;;;;;44.00;21.40;;;;;;;;;;5022078;28;20039;-51
2022/01/13 00:46:07;;;;;;;29.42;16.67;;;;;;;;;;5024055;28;20215;-53
2022/01/13 00:48:33;;;;;;;22.10;12.68;;;;;;;;;;5028505;28;20151;-52
2022/01/13 00:50:59;;;;;;;15.27;10.75;;;;;;;;;;5022999;28;20044;-50
2022/01/13 00:53:25;;;;;;;13.57;10.35;;;;;;;;;;5028162;28;20026;-51
2022/01/13 00:56:00;;;;;;;16.40;10.20;;;;;;;;;;5026138;28;20055;-54
2022/01/13 00:58:34;;;;;;;17.13;10.32;;;;;;;;;;5022683;28;20041;-53
2022/01/13 01:01:02;;;;;;;14.98;11.60;;;;;;;;;;5024956;28;20514;-49
2022/01/13 01:03:29;;;;;;;19.55;11.75;;;;;;;;;;5022986;28;20490;-53
2022/01/13 01:05:56;;;;;;;22.60;14.32;;;;;;;;;;5025340;28;20054;-54
2022/01/13 01:08:23;;;;;;;38.42;18.00;;;;;;;;;;5023134;28;20120;-54
2022/01/13 01:10:50;;;;;;;42.72;19.65;;;;;;;;;;5022562;28;20470;-51
2022/01/13 01:13:21;;;;;;;30.73;18.05;;;;;;;;;;5028014;28;20033;-54
2022/01/13 01:15:53;;;;;;;36.08;17.15;;;;;;;;;;5025325;28;20029;-49
2022/01/13 01:31:36;;;;;;;19.33;12.48;;;;;;;;;;5004275;28;20125;-49
2022/01/13 01:36:48;;;;;;;18.27;12.98;;;;;;;;;;5005918;28;20121;-56
2022/01/13 01:39:14;;;;;;;18.17;11.40;;;;;;;;;;5004504;28;20032;-51
2022/01/13 01:41:46;;;;;;;22.27;12.32;;;;;;;;;;5003979;28;20026;-51
2022/01/13 01:44:15;;;;;;;26.77;13.25;;;;;;;;;;5005400;28;20045;-50
2022/01/13 01:46:45;;;;;;;21.88;13.18;;;;;;;;;;5006510;28;20117;-54
2022/01/13 01:49:17;;;;;;;18.15;12.77;;;;;;;;;;5001817;28;20495;-51
2022/01/13 01:51:44;;;;;;;28.73;15.98;;;;;;;;;;5006234;28;20029;-57
2022/01/13 01:54:10;;;;;;;20.67;12.85;;;;;;;;;;5005565;28;20092;-51
2022/01/13 01:56:37;;;;;;;19.05;12.77;;;;;;;;;;5007081;28;20117;-56
2022/01/13 01:59:06;;;;;;;22.75;12.25;;;;;;;;;;5006788;28;20137;-53
2022/01/13 02:01:32;;;;;;;20.63;12.30;;;;;;;;;;5006102;28;20763;-56
2022/01/13 02:03:58;;;;;;;20.27;13.65;;;;;;;;;;5017366;28;20065;-49
2022/01/13 02:06:23;;;;;;;24.85;14.48;;;;;;;;;;5024483;28;20524;-53
2022/01/13 02:08:49;;;;;;;25.13;15.55;;;;;;;;;;5020022;28;20037;-54
2022/01/13 02:11:15;;;;;;;27.88;16.73;;;;;;;;;;5027682;28;20038;-55
2022/01/13 02:13:48;;;;;;;26.67;16.20;;;;;;;;;;5029505;28;20155;-55
2022/01/13 02:16:38;;;;;;;25.80;15.18;;;;;;;;;;5023853;28;20116;-56
2022/01/13 02:19:03;;;;;;;30.77;16.08;;;;;;;;;;5017256;28;20041;-55
2022/01/13 02:21:29;;;;;;;34.72;16.50;;;;;;;;;;5021098;28;20479;-56
2022/01/13 02:23:55;;;;;;;22.75;15.18;;;;;;;;;;5023434;28;20163;-56
2022/01/13 02:26:21;;;;;;;22.40;14.63;;;;;;;;;;5022198;28;20065;-52
2022/01/13 02:28:53;;;;;;;23.20;15.18;;;;;;;;;;5017680;28;20041;-50
2022/01/13 02:31:19;;;;;;;22.75;13.30;;;;;;;;;;5027859;28;20045;-56
2022/01/13 02:33:45;;;;;;;23.42;13.07;;;;;;;;;;5004232;28;20478;-53
2022/01/13 02:36:15;;;;;;;19.60;12.68;;;;;;;;;;5023898;28;20393;-54
2022/01/13 02:38:40;;;;;;;18.60;12.23;;;;;;;;;;5023831;28;20502;-49
2022/01/13 02:41:06;;;;;;;19.88;11.55;;;;;;;;;;5017127;28;20044;-54
2022/01/13 02:43:33;;;;;;;22.98;12.07;;;;;;;;;;5023035;28;20048;-56
2022/01/13 02:46:19;;;;;;;20.33;12.38;;;;;;;;;;5023524;28;20470;-49
2022/01/13 02:48:46;;;;;;;19.58;11.43;;;;;;;;;;5023975;28;20121;-53
2022/01/13 02:51:11;;;;;;;19.60;11.30;;;;;;;;;;5018232;28;20109;-50
2022/01/13 02:53:37;;;;;;;21.95;12.27;;;;;;;;;;5021469;28;20447;-52
2022/01/13 02:56:05;;;;;;;18.63;10.45;;;;;;;;;;5022316;28;20025;-57
2022/01/13 02:58:34;;;;;;;18.48;10.30;;;;;;;;;;5027013;28;20033;-53
2022/01/13 03:01:02;;;;;;;16.50;10.95;;;;;;;;;;5024090;28;20125;-54
2022/01/13 03:03:29;;;;;;;17.02;10.93;;;;;;;;;;5020487;28;20479;-55
2022/01/13 03:05:55;;;;;;;18.38;11.20;;;;;;;;;;5023863;28;20534;-53
2022/01/13 03:08:21;;;;;;;19.98;11.73;;;;;;;;;;5020782;28;20133;-53
2022/01/13 03:10:47;;;;;;;21.45;11.32;;;;;;;;;;5020885;28;20379;-49
2022/01/13 03:13:34;;;;;;;17.13;10.77;;;;;;;;;;5022605;28;20030;-55
2022/01/13 03:16:13;;;;;;;17.80;11.00;;;;;;;;;;5020054;28;20390;-57
2022/01/13 03:18:40;;;;;;;21.70;10.60;;;;;;;;;;5022576;28;20037;-56
2022/01/13 03:21:07;;;;;;;15.25;9.95;;;;;;;;;;5019333;28;20136;-56
2022/01/13 03:23:34;;;;;;;16.77;10.82;;;;;;;;;;5020861;28;20041;-56
2022/01/13 03:26:00;;;;;;;22.70;12.35;;;;;;;;;;5023870;28;20095;-56
2022/01/13 03:28:31;;;;;;;17.08;11.13;;;;;;;;;;5012885;28;20561;-55
2022/01/13 03:31:02;;;;;;;22.02;10.23;;;;;;;;;;5022559;28;20498;-56
2022/01/13 03:33:28;;;;;;;15.95;10.27;;;;;;;;;;5024043;28;20033;-55
2022/01/13 03:35:55;;;;;;;16.90;10.98;;;;;;;;;;5022821;28;20073;-55
2022/01/13 03:38:22;;;;;;;15.15;10.32;;;;;;;;;;5019247;28;20052;-52
2022/01/13 03:40:48;;;;;;;18.27;11.15;;;;;;;;;;5021941;28;20037;-52
2022/01/13 03:43:16;;;;;;;14.98;10.45;;;;;;;;;;5018966;28;20026;-55
2022/01/13 03:45:42;;;;;;;16.63;10.13;;;;;;;;;;5025246;28;20034;-52
2022/01/13 03:48:09;;;;;;;15.63;10.57;;;;;;;;;;5019162;28;20543;-52
2022/01/13 03:50:35;;;;;;;14.70;10.43;;;;;;;;;;5019897;28;20049;-52
2022/01/13 03:53:01;;;;;;;18.17;10.32;;;;;;;;;;5019211;28;20038;-55
2022/01/13 03:55:36;;;;;;;14.30;10.23;;;;;;;;;;5020393;28;20042;-53
2022/01/13 03:58:55;;;;;;;19.73;10.57;;;;;;;;;;5022877;28;20042;-56
2022/01/13 04:01:55;;;;;;;17.75;10.50;;;;;;;;;;5014471;28;20124;-55
2022/01/13 04:04:21;;;;;;;14.73;9.75;;;;;;;;;;5016690;28;20498;-56
2022/01/13 04:06:47;;;;;;;14.52;9.43;;;;;;;;;;5022546;28;20124;-53
2022/01/13 04:09:32;;;;;;;13.60;9.85;;;;;;;;;;5020077;28;20037;-56
2022/01/13 04:12:01;;;;;;;17.75;9.50;;;;;;;;;;5035451;28;20084;-56
2022/01/13 04:14:30;;;;;;;14.88;9.80;;;;;;;;;;5026430;28;20063;-55
2022/01/13 04:16:56;;;;;;;14.45;9.57;;;;;;;;;;5020528;28;20029;-52
2022/01/13 04:19:22;;;;;;;14.02;9.90;;;;;;;;;;5017414;28;20034;-56
2022/01/13 04:21:48;;;;;;;19.52;9.55;;;;;;;;;;5016364;28;20029;-56
2022/01/13 04:24:14;;;;;;;14.55;8.88;;;;;;;;;;5020837;28;20042;-56
2022/01/13 04:26:42;;;;;;;13.55;9.02;;;;;;;;;;5025849;28;20029;-55
2022/01/13 04:31:41;;;;;;;14.63;9.48;;;;;;;;;;5024008;28;20045;-56
2022/01/13 04:34:07;;;;;;;17.70;9.90;;;;;;;;;;5025755;28;20041;-56
2022/01/13 04:36:32;;;;;;;14.38;9.48;;;;;;;;;;5025983;28;20026;-56
2022/01/13 04:38:58;;;;;;;15.13;9.00;;;;;;;;;;5025801;28;20043;-55
2022/01/13 04:41:30;;;;;;;15.63;8.95;;;;;;;;;;5018410;28;20037;-53
2022/01/13 04:43:57;;;;;;;15.02;9.23;;;;;;;;;;5022026;28;20112;-55
2022/01/13 04:46:23;;;;;;;15.10;9.48;;;;;;;;;;5024507;28;20056;-52
2022/01/13 04:48:49;;;;;;;14.40;9.55;;;;;;;;;;5021795;28;20033;-54
2022/01/13 04:51:16;;;;;;;16.52;9.75;;;;;;;;;;5027619;28;20029;-50
2022/01/13 04:53:41;;;;;;;16.10;8.82;;;;;;;;;;5026556;28;20025;-50
2022/01/13 04:56:12;;;;;;;14.25;9.95;;;;;;;;;;5025756;28;20090;-48
2022/01/13 04:58:38;;;;;;;14.07;9.43;;;;;;;;;;5024965;28;20442;-47
2022/01/13 05:01:04;;;;;;;15.05;9.90;;;;;;;;;;5026862;28;20124;-52
2022/01/13 05:03:30;;;;;;;15.25;10.07;;;;;;;;;;5057000;28;20048;-52
2022/01/13 05:05:56;;;;;;;11.65;8.93;;;;;;;;;;5024890;28;20033;-54
2022/01/13 05:08:22;;;;;;;13.68;8.98;;;;;;;;;;5022354;28;20091;-50
2022/01/13 05:10:48;;;;;;;14.80;9.80;;;;;;;;;;5028590;28;20029;-51
2022/01/13 05:13:14;;;;;;;14.30;9.10;;;;;;;;;;5027010;28;20437;-48
2022/01/13 05:15:41;;;;;;;11.75;6.90;;;;;;;;;;5024760;28;20048;-47
2022/01/13 05:20:57;;;;;;;7.80;6.05;;;;;;;;;;5025769;28;20124;-53
2022/01/13 05:23:23;;;;;;;9.85;6.03;;;;;;;;;;5023160;28;20040;-48
2022/01/13 05:25:49;;;;;;;8.98;6.10;;;;;;;;;;5020601;28;20120;-50
2022/01/13 05:28:15;;;;;;;9.30;6.57;;;;;;;;;;5027749;28;20046;-50
2022/01/13 05:30:41;;;;;;;10.05;6.40;;;;;;;;;;5027624;28;20579;-50
2022/01/13 05:33:08;;;;;;;8.32;5.93;;;;;;;;;;5024110;28;20037;-53
2022/01/13 05:35:36;;;;;;;6.32;5.72;;;;;;;;;;5022938;28;20048;-53
2022/01/13 05:38:06;;;;;;;7.32;5.18;;;;;;;;;;5021990;28;20065;-55
2022/01/13 05:40:33;;;;;;;8.43;5.20;;;;;;;;;;5021295;28;20072;-55
2022/01/13 05:42:59;;;;;;;8.85;5.43;;;;;;;;;;5024358;28;20049;-52
2022/01/13 05:45:29;;;;;;;7.78;4.93;;;;;;;;;;5017029;28;20034;-51
2022/01/13 05:47:58;;;;;;;7.70;5.30;;;;;;;;;;5018576;28;20481;-52
2022/01/13 05:50:24;;;;;;;8.38;6.43;;;;;;;;;;5024822;28;20083;-49
2022/01/13 05:52:50;;;;;;;10.90;7.20;;;;;;;;;;5022336;28;20037;-50
2022/01/13 05:55:16;;;;;;;12.95;7.25;;;;;;;;;;5020408;28;20485;-55
2022/01/13 05:57:42;;;;;;;17.92;8.50;;;;;;;;;;5020991;28;20064;-48
2022/01/13 06:00:11;;;;;;;14.63;8.60;;;;;;;;;;5022513;28;20057;-55
2022/01/13 06:02:37;;;;;;;18.60;9.38;;;;;;;;;;5024697;28;20120;-52
2022/01/13 06:05:03;;;;;;;20.60;10.68;;;;;;;;;;5006860;28;20106;-51
2022/01/13 06:07:29;;;;;;;30.92;14.10;;;;;;;;;;5026212;28;20359;-49
2022/01/13 06:09:54;;;;;;;27.33;13.75;;;;;;;;;;5026918;28;20036;-51
2022/01/13 06:12:31;;;;;;;18.77;10.68;;;;;;;;;;5025023;28;20051;-48
2022/01/13 06:14:57;;;;;;;16.60;8.65;;;;;;;;;;5024113;28;20125;-55
2022/01/13 06:17:23;;;;;;;12.50;7.55;;;;;;;;;;5020106;28;20460;-50
2022/01/13 06:19:48;;;;;;;23.00;11.90;;;;;;;;;;5024924;28;20113;-50
2022/01/13 06:22:14;;;;;;;52.63;25.73;;;;;;;;;;5028034;28;20387;-48
2022/01/13 06:24:39;;;;;;;31.85;17.42;;;;;;;;;;5026488;28;20029;-52
2022/01/13 06:27:05;;;;;;;19.90;11.13;;;;;;;;;;5021643;28;20441;-47
2022/01/13 06:29:31;;;;;;;28.35;13.05;;;;;;;;;;5018623;28;20042;-48
2022/01/13 06:31:57;;;;;;;32.00;17.08;;;;;;;;;;5018672;28;20041;-53
2022/01/13 06:34:23;;;;;;;14.30;8.85;;;;;;;;;;5022681;28;20073;-48
2022/01/13 06:36:49;;;;;;;18.80;10.35;;;;;;;;;;5018528;28;20041;-52
2022/01/13 06:39:15;;;;;;;36.70;20.38;;;;;;;;;;5017792;28;20514;-52
2022/01/13 06:41:41;;;;;;;21.70;12.50;;;;;;;;;;5024269;28;20029;-50
2022/01/13 06:44:07;;;;;;;15.57;9.65;;;;;;;;;;5026914;28;20033;-48
2022/01/13 06:46:32;;;;;;;17.25;11.07;;;;;;;;;;5019916;28;20079;-53
2022/01/13 06:48:58;;;;;;;28.30;14.20;;;;;;;;;;5025760;28;20437;-55
2022/01/13 06:51:24;;;;;;;126.88;28.38;;;;;;;;;;5020672;28;20026;-49
2022/01/13 06:53:49;;;;;;;206.20;48.90;;;;;;;;;;5024820;28;20537;-50
2022/01/13 06:56:15;;;;;;;202.93;52.92;;;;;;;;;;5023172;28;20036;-49
2022/01/13 06:58:44;;;;;;;86.20;26.98;;;;;;;;;;5019183;28;20033;-49
2022/01/13 07:01:10;;;;;;;50.97;19.40;;;;;;;;;;5024151;28;20120;-48
2022/01/13 07:03:36;;;;;;;49.83;22.67;;;;;;;;;;5022614;28;20117;-49
2022/01/13 07:06:02;;;;;;;22.00;12.43;;;;;;;;;;5022263;28;20735;-49
2022/01/13 07:08:28;;;;;;;22.17;13.13;;;;;;;;;;5022152;28;20034;-50
2022/01/13 07:10:53;;;;;;;46.00;21.23;;;;;;;;;;5018534;28;20029;-53
2022/01/13 07:13:19;;;;;;;27.83;14.68;;;;;;;;;;5018818;28;20045;-52
2022/01/13 07:15:46;;;;;;;33.13;17.90;;;;;;;;;;5020442;28;20029;-48
2022/01/13 07:18:12;;;;;;;31.77;19.30;;;;;;;;;;5023235;28;20048;-49
2022/01/13 07:20:40;;;;;;;30.65;18.25;;;;;;;;;;5018600;28;20072;-52
2022/01/13 07:23:06;;;;;;;26.20;16.20;;;;;;;;;;5019065;28;20076;-54
2022/01/13 07:25:32;;;;;;;29.65;16.58;;;;;;;;;;5022122;28;20738;-55
2022/01/13 07:27:58;;;;;;;24.80;15.98;;;;;;;;;;5022370;28;20505;-52
2022/01/13 07:30:24;;;;;;;35.15;16.23;;;;;;;;;;5023379;28;20087;-49
2022/01/13 07:32:49;;;;;;;24.05;14.95;;;;;;;;;;5020386;28;20344;-52
2022/01/13 07:35:15;;;;;;;21.27;13.38;;;;;;;;;;5023781;28;20033;-51
2022/01/13 07:37:42;;;;;;;20.15;13.07;;;;;;;;;;5022367;28;20040;-50
2022/01/13 07:40:13;;;;;;;40.83;22.27;;;;;;;;;;5020869;28;20387;-50
2022/01/13 07:42:42;;;;;;;42.80;23.52;;;;;;;;;;5020584;28;20022;-51
2022/01/13 07:45:10;;;;;;;20.73;11.90;;;;;;;;;;5019537;28;20076;-54
2022/01/13 07:47:36;;;;;;;13.93;8.55;;;;;;;;;;5022702;28;20382;-53
2022/01/13 07:50:06;;;;;;;53.70;22.80;;;;;;;;;;5020397;28;20083;-53
2022/01/13 07:52:32;;;;;;;30.95;12.80;;;;;;;;;;5020295;28;20046;-54
2022/01/13 07:54:57;;;;;;;19.27;8.77;;;;;;;;;;5023649;28;20034;-51
2022/01/13 07:57:23;;;;;;;13.50;5.60;;;;;;;;;;5018388;28;21082;-53
2022/01/13 07:59:49;;;;;;;8.05;4.00;;;;;;;;;;5015766;28;20467;-52
2022/01/13 08:02:14;;;;;;;6.88;4.35;;;;;;;;;;5016772;28;20034;-53
2022/01/13 08:04:40;;;;;;;7.03;4.43;;;;;;;;;;5016886;28;20049;-55
2022/01/13 08:07:06;;;;;;;10.15;4.47;;;;;;;;;;5020135;28;20033;-52
2022/01/13 08:09:31;;;;;;;8.75;4.88;;;;;;;;;;5017937;28;20065;-49
2022/01/13 08:11:57;;;;;;;8.07;4.47;;;;;;;;;;5024629;28;20034;-54
2022/01/13 08:14:23;;;;;;;10.77;3.75;;;;;;;;;;5022147;28;20119;-53
2022/01/13 08:16:50;;;;;;;8.38;3.58;;;;;;;;;;5021011;28;20064;-51
2022/01/13 08:22:00;;;;;;;4.85;3.60;;;;;;;;;;5025473;28;20033;-50
2022/01/13 08:24:26;;;;;;;41.22;20.98;;;;;;;;;;5026641;28;20428;-53
2022/01/13 08:26:51;;;;;;;41.53;23.75;;;;;;;;;;5021559;28;20038;-57
2022/01/13 08:29:17;;;;;;;45.90;23.63;;;;;;;;;;5026101;28;20044;-55
2022/01/13 08:31:43;;;;;;;55.00;28.98;;;;;;;;;;5022654;28;20048;-54
2022/01/13 08:34:08;;;;;;;44.13;22.30;;;;;;;;;;5022401;28;20080;-53
2022/01/13 08:36:34;;;;;;;36.72;20.45;;;;;;;;;;5020654;28;20033;-54
2022/01/13 08:39:00;;;;;;;39.22;18.38;;;;;;;;;;5022727;28;20623;-51
2022/01/13 08:41:26;;;;;;;35.80;16.05;;;;;;;;;;5025375;28;20025;-56
2022/01/13 08:43:53;;;;;;;30.65;16.98;;;;;;;;;;5024646;28;20059;-50
2022/01/13 08:46:19;;;;;;;34.58;17.10;;;;;;;;;;5022838;28;20049;-50
2022/01/13 08:48:45;;;;;;;35.35;18.13;;;;;;;;;;5021334;28;20940;-52
2022/01/13 08:51:10;;;;;;;31.58;16.23;;;;;;;;;;5021840;28;20082;-52
2022/01/13 08:53:38;;;;;;;27.25;15.00;;;;;;;;;;5023408;28;20149;-51
2022/01/13 08:56:04;;;;;;;26.42;15.65;;;;;;;;;;5021300;28;20053;-53
2022/01/13 08:58:30;;;;;;;26.85;15.52;;;;;;;;;;5024333;28;20037;-50
2022/01/13 09:00:56;;;;;;;22.73;13.32;;;;;;;;;;5021935;28;20080;-51
2022/01/13 09:03:22;;;;;;;23.25;14.55;;;;;;;;;;5027619;28;20029;-51
2022/01/13 09:05:48;;;;;;;25.63;14.02;;;;;;;;;;5021147;28;20540;-55
2022/01/13 09:08:14;;;;;;;24.15;14.52;;;;;;;;;;5026585;28;20041;-52
2022/01/13 09:10:42;;;;;;;22.52;14.93;;;;;;;;;;5017393;28;20105;-57
2022/01/13 09:13:11;;;;;;;29.02;16.63;;;;;;;;;;5024571;28;20514;-50
2022/01/13 09:15:42;;;;;;;25.05;16.10;;;;;;;;;;5023988;28;20119;-49
2022/01/13 09:18:10;;;;;;;27.15;17.15;;;;;;;;;;5027864;28;20466;-53
2022/01/13 09:20:38;;;;;;;30.10;18.13;;;;;;;;;;5029555;28;20155;-52
2022/01/13 09:23:04;;;;;;;30.13;18.30;;;;;;;;;;5024586;28;20041;-52
2022/01/13 09:25:30;;;;;;;28.27;18.27;;;;;;;;;;5022061;28;20462;-53
2022/01/13 09:27:56;;;;;;;34.30;22.15;;;;;;;;;;5024308;28;20060;-51
2022/01/13 09:30:23;;;;;;;35.50;20.67;;;;;;;;;;5025321;28;20072;-49
2022/01/13 09:32:48;;;;;;;31.92;21.50;;;;;;;;;;5021965;28;20546;-49
2022/01/13 09:35:14;;;;;;;30.98;20.25;;;;;;;;;;5026864;28;20079;-55
2022/01/13 09:37:40;;;;;;;29.33;18.63;;;;;;;;;;5019483;28;20092;-51
2022/01/13 09:40:07;;;;;;;27.27;18.00;;;;;;;;;;5024237;28;20040;-52
2022/01/13 09:42:34;;;;;;;31.58;17.67;;;;;;;;;;5027187;28;20029;-49
2022/01/13 09:45:02;;;;;;;27.88;18.52;;;;;;;;;;5020467;28;20083;-49
2022/01/13 09:47:29;;;;;;;29.30;17.27;;;;;;;;;;5015668;28;20033;-56
2022/01/13 09:49:57;;;;;;;27.63;17.05;;;;;;;;;;5020465;28;20030;-54
2022/01/13 09:52:22;;;;;;;29.15;15.82;;;;;;;;;;5023214;28;20446;-49
2022/01/13 09:54:49;;;;;;;32.33;16.63;;;;;;;;;;5024329;28;20582;-50
2022/01/13 09:57:15;;;;;;;23.52;14.73;;;;;;;;;;5026263;28;20398;-51
2022/01/13 09:59:41;;;;;;;27.02;15.63;;;;;;;;;;5023799;28;20049;-49
2022/01/13 10:02:07;;;;;;;29.10;14.27;;;;;;;;;;5024246;28;20042;-52
2022/01/13 10:04:50;;;;;;;29.23;13.73;;;;;;;;;;5023816;28;20118;-50
2022/01/13 10:07:36;;;;;;;26.38;13.80;;;;;;;;;;5023929;28;20037;-54
2022/01/13 10:10:14;;;;;;;21.25;14.63;;;;;;;;;;5018781;28;20471;-52
2022/01/13 10:12:43;;;;;;;26.40;13.65;;;;;;;;;;5024774;28;20140;-54
2022/01/13 10:18:05;;;;;;;43.70;16.00;;;;;;;;;;5023416;28;20059;-49
2022/01/13 10:20:32;;;;;;;29.02;14.57;;;;;;;;;;5022203;28;20045;-52
2022/01/13 10:23:09;;;;;;;32.22;15.95;;;;;;;;;;5019336;28;20045;-51
2022/01/13 10:25:38;;;;;;;32.13;17.88;;;;;;;;;;5024549;28;20057;-51
2022/01/13 10:28:19;;;;;;;33.17;17.45;;;;;;;;;;5023490;28;20032;-56
2022/01/13 10:30:53;;;;;;;34.25;18.20;;;;;;;;;;5026798;28;20053;-51
2022/01/13 10:33:26;;;;;;;45.17;19.58;;;;;;;;;;5026280;28;20025;-50
2022/01/13 10:35:54;;;;;;;39.55;20.33;;;;;;;;;;5023670;28;20028;-56
2022/01/13 10:38:21;;;;;;;40.13;18.92;;;;;;;;;;5021015;28;20445;-50
2022/01/13 10:40:49;;;;;;;34.05;18.60;;;;;;;;;;5021347;28;20029;-55
2022/01/13 10:43:20;;;;;;;32.83;17.38;;;;;;;;;;5023119;28;20544;-55
2022/01/13 10:45:56;;;;;;;34.20;18.05;;;;;;;;;;5023266;28;20032;-55
2022/01/13 10:49:22;;;;;;;34.22;17.92;;;;;;;;;;5019426;28;20273;-50
2022/01/13 10:51:49;;;;;;;32.90;18.88;;;;;;;;;;4993181;28;20057;-54
2022/01/13 10:54:32;;;;;;;32.00;18.27;;;;;;;;;;4984127;28;20038;-50
2022/01/13 10:57:20;;;;;;;30.50;17.17;;;;;;;;;;4999862;28;20042;-51
2022/01/13 10:59:46;;;;;;;43.65;18.95;;;;;;;;;;5000360;28;20029;-53
2022/01/13 11:02:12;;;;;;;34.58;18.30;;;;;;;;;;4998426;28;20583;-52
2022/01/13 11:04:38;;;;;;;38.33;19.63;;;;;;;;;;4995261;28;20360;-55
2022/01/13 11:07:21;;;;;;;32.22;16.35;;;;;;;;;;5004975;28;20037;-54
2022/01/13 11:09:56;;;;;;;29.55;16.73;;;;;;;;;;4997501;28;20072;-54
2022/01/13 11:12:38;;;;;;;33.95;17.90;;;;;;;;;;4998002;28;20604;-49
2022/01/13 11:15:07;;;;;;;27.58;16.77;;;;;;;;;;4995795;28;20041;-55
2022/01/13 11:17:37;;;;;;;33.38;17.13;;;;;;;;;;4997550;28;20042;-56
2022/01/13 11:20:09;;;;;;;27.65;17.10;;;;;;;;;;4998306;28;20505;-56
2022/01/13 11:22:37;;;;;;;29.27;16.70;;;;;;;;;;4996224;28;20396;-54
2022/01/13 11:25:08;;;;;;;28.52;15.65;;;;;;;;;;4993091;28;20075;-55
2022/01/13 11:27:34;;;;;;;25.77;16.70;;;;;;;;;;5009333;28;20064;-56
2022/01/13 11:30:02;;;;;;;31.80;15.70;;;;;;;;;;5025380;28;20088;-50
2022/01/13 11:32:30;;;;;;;30.65;16.90;;;;;;;;;;5016215;28;20442;-54
2022/01/13 11:34:58;;;;;;;26.33;17.98;;;;;;;;;;5022469;28;20173;-55
2022/01/13 11:37:28;;;;;;;28.13;17.88;;;;;;;;;;5023982;28;20029;-51
2022/01/13 11:39:54;;;;;;;37.15;18.48;;;;;;;;;;5052332;28;20037;-53
2022/01/13 11:42:21;;;;;;;28.30;17.83;;;;;;;;;;5022254;28;20386;-54
2022/01/13 11:45:10;;;;;;;34.63;18.45;;;;;;;;;;5017639;28;20036;-55
2022/01/13 11:47:37;;;;;;;32.35;17.92;;;;;;;;;;5017197;28;20417;-52
2022/01/13 11:50:23;;;;;;;33.92;17.83;;;;;;;;;;5020258;28;20021;-56
2022/01/13 11:52:54;;;;;;;28.42;18.27;;;;;;;;;;5016654;28;20112;-50
2022/01/13 11:55:27;;;;;;;30.25;19.17;;;;;;;;;;5022056;28;20461;-52
2022/01/13 11:58:12;;;;;;;27.27;18.52;;;;;;;;;;5010287;28;20125;-57
2022/01/13 12:00:39;;;;;;;26.17;18.30;;;;;;;;;;5014948;28;20038;-56
2022/01/13 12:03:23;;;;;;;37.10;17.20;;;;;;;;;;5016793;28;20487;-56
2022/01/13 12:05:49;;;;;;;28.17;16.73;;;;;;;;;;5015004;28;20029;-51
2022/01/13 12:08:51;;;;;;;28.33;18.38;;;;;;;;;;5017175;28;20029;-56
2022/01/13 12:11:41;;;;;;;22.55;15.50;;;;;;;;;;5016827;28;20029;-54
2022/01/13 12:14:26;;;;;;;26.90;15.82;;;;;;;;;;5012816;28;20111;-52
2022/01/13 12:16:53;;;;;;;22.95;15.25;;;;;;;;;;5020541;28;20406;-56
2022/01/13 12:19:36;;;;;;;24.42;15.75;;;;;;;;;;5021962;28;20127;-56
2022/01/13 12:22:08;;;;;;;29.67;15.68;;;;;;;;;;5021273;28;20038;-54
2022/01/13 12:24:51;;;;;;;23.83;15.48;;;;;;;;;;5021873;28;20037;-55
2022/01/13 12:27:18;;;;;;;;;;;;;;;;;;5021661;28;20042;-57
2022/01/13 12:29:46;;;;;;;23.83;14.35;;;;;;;;;;5010768;28;19917;-55
2022/01/13 12:32:14;;;;;;;31.52;16.55;;;;;;;;;;5014724;28;20026;-54
2022/01/13 12:34:48;;;;;;;29.77;16.50;;;;;;;;;;5016464;28;20033;-55
2022/01/13 12:37:14;;;;;;;27.38;16.67;;;;;;;;;;5022020;28;20057;-56
2022/01/13 12:40:03;;;;;;;22.20;16.23;;;;;;;;;;5015697;28;20095;-56
2022/01/13 12:42:35;;;;;;;28.20;17.48;;;;;;;;;;5019493;28;20052;-57
2022/01/13 12:47:47;;;;;;;27.98;17.15;;;;;;;;;;5018724;28;20041;-55
2022/01/13 12:50:27;;;;;;;29.92;17.48;;;;;;;;;;5012478;28;20526;-57
2022/01/13 12:53:05;;;;;;;30.42;17.55;;;;;;;;;;5017168;28;20042;-56
2022/01/13 12:55:30;;;;;;;28.70;17.33;;;;;;;;;;5022250;28;20033;-57
2022/01/13 12:57:56;;;;;;;39.00;18.98;;;;;;;;;;5024679;28;20034;-57
2022/01/13 13:00:25;;;;;;;29.40;17.52;;;;;;;;;;5020357;28;20084;-56
2022/01/13 13:02:53;;;;;;;31.60;17.70;;;;;;;;;;5015863;28;20036;-56
2022/01/13 13:05:36;;;;;;;27.00;17.77;;;;;;;;;;5024533;28;20374;-57
2022/01/13 13:08:02;;;;;;;34.53;18.00;;;;;;;;;;5021032;28;20030;-57
2022/01/13 13:10:29;;;;;;;31.00;18.15;;;;;;;;;;5029015;28;20041;-54
2022/01/13 13:12:56;;;;;;;32.85;16.70;;;;;;;;;;5024986;28;20041;-57
2022/01/13 13:17:52;;;;;;;25.67;16.40;;;;;;;;;;5022405;28;20071;-57
2022/01/13 13:20:26;;;;;;;25.25;16.38;;;;;;;;;;5017109;28;20050;-58
2022/01/13 13:22:56;;;;;;;31.33;17.05;;;;;;;;;;5024284;28;20087;-56
2022/01/13 13:25:28;;;;;;;32.15;17.35;;;;;;;;;;5020831;28;20037;-52
2022/01/13 13:27:54;;;;;;;;;;;;;;;;;;5023711;28;20296;-53
2022/01/13 13:30:19;;;;;;;32.95;16.50;;;;;;;;;;5024706;28;20358;-49
2022/01/13 13:32:54;;;;;;;35.08;16.15;;;;;;;;;;5021033;28;20095;-51
2022/01/13 13:35:20;;;;;;;31.10;15.27;;;;;;;;;;5024515;28;20069;-52
2022/01/13 13:37:46;;;;;;;35.13;16.98;;;;;;;;;;5024780;28;20089;-50
2022/01/13 13:40:24;;;;;;;32.95;15.45;;;;;;;;;;5022970;28;20021;-54
2022/01/13 13:43:08;;;;;;;26.45;16.00;;;;;;;;;;5023414;28;20026;-56
2022/01/13 13:45:34;;;;;;;25.65;15.05;;;;;;;;;;5019844;28;20030;-51
2022/01/13 13:48:00;;;;;;;20.92;15.25;;;;;;;;;;5024029;28;20037;-50
2022/01/13 13:50:27;;;;;;;36.33;14.38;;;;;;;;;;5021419;28;20037;-52
2022/01/13 13:53:05;;;;;;;28.20;13.13;;;;;;;;;;5017814;28;20129;-54
2022/01/13 13:55:32;;;;;;;26.05;13.82;;;;;;;;;;5019271;28;20032;-54
2022/01/13 13:57:58;;;;;;;29.08;14.75;;;;;;;;;;5020995;28;20057;-56
2022/01/13 14:00:28;;;;;;;27.88;15.00;;;;;;;;;;5021885;28;20064;-57
2022/01/13 14:02:55;;;;;;;31.73;16.70;;;;;;;;;;5023230;28;20080;-51
2022/01/13 14:05:26;;;;;;;48.22;16.88;;;;;;;;;;5018257;28;20927;-50
2022/01/13 14:07:52;;;;;;;54.58;16.80;;;;;;;;;;5022902;28;20034;-49
2022/01/13 14:10:22;;;;;;;59.72;18.75;;;;;;;;;;5018847;28;20029;-49
2022/01/13 14:12:52;;;;;;;59.15;19.38;;;;;;;;;;5023811;28;20067;-51
2022/01/13 14:15:30;;;;;;;53.72;16.27;;;;;;;;;;5023957;28;20082;-51
2022/01/13 14:18:08;;;;;;;75.85;16.88;;;;;;;;;;5023489;28;20037;-57
2022/01/13 14:20:38;;;;;;;50.88;16.25;;;;;;;;;;5024021;28;20132;-53
2022/01/13 14:23:26;;;;;;;40.42;15.02;;;;;;;;;;5022152;28;20359;-55
2022/01/13 14:26:01;;;;;;;41.05;14.00;;;;;;;;;;5020009;28;20029;-56
2022/01/13 14:28:30;;;;;;;36.92;13.45;;;;;;;;;;5023062;28;20041;-50
2022/01/13 14:31:02;;;;;;;37.08;12.75;;;;;;;;;;5024265;28;20022;-50
2022/01/13 14:33:32;;;;;;;37.08;15.82;;;;;;;;;;5020172;28;20029;-51
2022/01/13 14:36:21;;;;;;;56.25;17.25;;;;;;;;;;5023888;28;20029;-56
2022/01/13 14:38:54;;;;;;;39.80;15.98;;;;;;;;;;5023051;28;20042;-56
2022/01/13 14:41:26;;;;;;;47.17;14.68;;;;;;;;;;5022696;28;20029;-55
2022/01/13 14:44:04;;;;;;;54.65;15.77;;;;;;;;;;5023172;28;20895;-54
2022/01/13 14:46:32;;;;;;;27.73;12.95;;;;;;;;;;5018447;28;20034;-52
2022/01/13 14:48:58;;;;;;;25.92;13.10;;;;;;;;;;5018055;28;20655;-55
2022/01/13 14:51:25;;;;;;;27.00;13.48;;;;;;;;;;5022836;28;20112;-56
2022/01/13 14:53:51;;;;;;;22.25;12.93;;;;;;;;;;5017770;28;20022;-53
2022/01/13 14:56:19;;;;;;;24.73;13.32;;;;;;;;;;5020745;28;20090;-51
2022/01/13 14:58:45;;;;;;;26.85;13.15;;;;;;;;;;5021615;28;20081;-55
2022/01/13 15:01:14;;;;;;;21.23;13.48;;;;;;;;;;5025538;28;20102;-54
2022/01/13 15:03:40;;;;;;;21.05;11.85;;;;;;;;;;5024137;28;20057;-52
2022/01/13 15:06:07;;;;;;;19.77;12.57;;;;;;;;;;5016500;28;20029;-54
2022/01/13 15:08:34;;;;;;;23.70;12.43;;;;;;;;;;5017554;28;20026;-52